Time;durP1;ratioP1;P1;durP2;ratioP2;P2;SDS_P1;SDS_P2;PMS_P1;PMS_P2;Temp;Humidity;BMP_temperature;BMP_pressure;BME280_temperature;BME280_humidity;BME280_pressure;Samples;Min_cycle;Max_cycle;Signal;HPM_P1;HPM_P2
2021/12/14 00:02:16;;;;;;;11.23;5.30;;;;;;;8.18;78.52;102404.19;5086100;28;20406;-66
2021/12/14 00:04:43;;;;;;;15.05;5.68;;;;;;;8.02;78.71;102396.41;5071124;28;20447;-66
2021/12/14 00:07:13;;;;;;;12.55;5.00;;;;;;;8.02;79.19;102404.34;5052574;28;20044;-66
2021/12/14 00:09:42;;;;;;;11.50;4.90;;;;;;;8.12;78.47;102407.25;5071302;28;20048;-66
2021/12/14 00:15:10;;;;;;;17.10;5.20;;;;;;;8.16;77.88;102397.31;5074831;28;20040;-66
2021/12/14 00:17:45;;;;;;;10.73;5.20;;;;;;;8.22;77.93;102404.84;5075467;28;20041;-66
2021/12/14 00:20:36;;;;;;;11.27;5.05;;;;;;;8.11;78.27;102409.97;5050897;28;20045;-66
2021/12/14 00:25:47;;;;;;;11.48;5.30;;;;;;;8.08;78.80;102406.59;5071805;27;20398;-67
2021/12/14 00:28:25;;;;;;;12.75;5.05;;;;;;;8.10;78.30;102417.06;5069211;28;20048;-67
2021/12/14 00:30:55;;;;;;;10.25;4.63;;;;;;;8.10;78.33;102409.13;5068274;28;20044;-67
2021/12/14 00:33:30;;;;;;;11.20;5.47;;;;;;;8.06;79.05;102413.78;5060459;28;20045;-67
2021/12/14 00:35:57;;;;;;;14.02;5.28;;;;;;;8.01;79.22;102407.91;5062365;28;20497;-67
2021/12/14 00:38:26;;;;;;;10.98;4.63;;;;;;;8.13;78.58;102401.03;5069914;28;20040;-67
2021/12/14 00:41:01;;;;;;;10.60;4.72;;;;;;;7.98;80.07;102397.53;5072694;28;20547;-67
2021/12/14 00:43:27;;;;;;;14.43;5.60;;;;;;;8.03;79.62;102387.53;5067476;28;20049;-66
2021/12/14 00:45:54;;;;;;;13.55;5.22;;;;;;;8.05;79.46;102385.63;5051398;28;20383;-66
2021/12/14 00:48:21;;;;;;;12.80;5.00;;;;;;;7.95;80.34;102384.53;5051747;28;20082;-66
2021/12/14 00:50:53;;;;;;;11.68;5.43;;;;;;;7.93;80.66;102385.56;5068764;28;20048;-66
2021/12/14 00:53:20;;;;;;;9.88;5.00;;;;;;;7.95;80.48;102397.75;5067965;28;20493;-66
2021/12/14 00:55:50;;;;;;;11.23;5.10;;;;;;;8.11;79.34;102399.41;5051563;28;20106;-66
2021/12/14 00:58:18;;;;;;;11.55;4.68;;;;;;;8.25;78.33;102402.03;5067761;28;20099;-66
2021/12/14 01:00:50;;;;;;;12.23;5.05;;;;;;;8.03;79.73;102395.44;5048211;28;20091;-68
2021/12/14 01:03:16;;;;;;;12.77;4.95;;;;;;;8.10;79.56;102398.56;5067119;28;20557;-66
2021/12/14 01:05:47;;;;;;;9.57;5.00;;;;;;;8.12;78.67;102399.31;5065458;28;20048;-66
2021/12/14 01:08:19;;;;;;;11.57;5.03;;;;;;;7.99;80.11;102390.47;5068916;28;20508;-66
2021/12/14 01:10:52;;;;;;;11.82;5.05;;;;;;;8.18;79.00;102396.25;5068697;28;20044;-66
2021/12/14 01:13:25;;;;;;;12.70;5.28;;;;;;;8.12;79.07;102391.38;5068405;28;20044;-66
2021/12/14 01:21:41;;;;;;;9.68;4.75;;;;;;;7.99;80.28;102396.59;5119676;28;20097;-65
2021/12/14 01:24:21;;;;;;;15.93;5.05;;;;;;;7.92;80.72;102378.59;5110400;28;20046;-65
2021/12/14 01:26:50;;;;;;;10.80;4.90;;;;;;;7.97;80.34;102376.50;5113531;27;20085;-65
2021/12/14 01:29:18;;;;;;;14.07;4.78;;;;;;;8.02;80.04;102379.69;5109650;28;20500;-65
2021/12/14 01:31:47;;;;;;;12.20;4.82;;;;;;;7.98;79.71;102386.13;5108753;28;20040;-66
2021/12/14 01:34:19;;;;;;;10.90;4.97;;;;;;;7.92;80.32;102397.09;5107127;28;20508;-66
2021/12/14 01:36:51;;;;;;;;;;;;;;;7.86;80.48;102399.16;5110558;28;20040;-66
2021/12/14 01:42:23;;;;;;;13.70;5.20;;;;;;;7.98;80.31;102410.75;5090493;27;20374;-67
2021/12/14 01:44:55;;;;;;;11.77;5.07;;;;;;;7.92;80.83;102405.00;5072196;28;20047;-66
2021/12/14 01:47:33;;;;;;;13.60;5.30;;;;;;;7.91;80.97;102409.44;5089032;28;20052;-66
2021/12/14 01:50:18;;;;;;;11.10;5.00;;;;;;;7.91;80.69;102412.06;5088434;28;20041;-65
2021/12/14 01:53:05;;;;;;;10.52;4.95;;;;;;;7.88;80.78;102413.13;5090109;28;20572;-65
2021/12/14 01:55:37;;;;;;;14.02;5.32;;;;;;;7.83;81.43;102409.91;5089932;28;20074;-65
2021/12/14 01:58:06;;;;;;;12.57;5.15;;;;;;;8.03;80.04;102405.19;5089937;28;20040;-65
2021/12/14 02:00:44;;;;;;;10.90;5.18;;;;;;;7.97;81.22;102409.06;5088128;28;20105;-67
2021/12/14 02:03:14;;;;;;;13.50;5.35;;;;;;;7.92;81.00;102400.56;5072067;28;20509;-65
2021/12/14 02:05:47;;;;;;;11.45;5.30;;;;;;;8.00;80.40;102408.84;5088441;28;20171;-65
2021/12/14 02:08:26;;;;;;;12.10;5.25;;;;;;;7.96;81.18;102403.88;5086673;28;20048;-67
2021/12/14 02:10:56;;;;;;;12.38;5.18;;;;;;;8.11;80.04;102400.25;5071662;28;20036;-66
2021/12/14 02:13:27;;;;;;;10.95;5.63;;;;;;;7.97;80.55;102387.91;5088085;28;20135;-66
2021/12/14 02:15:55;;;;;;;12.75;5.80;;;;;;;8.06;80.74;102389.97;5088138;28;20063;-66
2021/12/14 02:18:27;;;;;;;11.30;5.35;;;;;;;8.11;79.63;102394.13;5055737;28;20051;-66
2021/12/14 02:21:01;;;;;;;12.55;5.47;;;;;;;7.89;80.72;102398.09;5076998;28;20040;-66
2021/12/14 02:23:29;;;;;;;12.20;5.63;;;;;;;8.10;80.05;102410.94;5067960;28;20462;-66
2021/12/14 02:26:00;;;;;;;11.35;5.63;;;;;;;8.00;80.08;102408.00;5071593;28;20045;-66
2021/12/14 02:28:27;;;;;;;16.58;6.47;;;;;;;7.88;81.18;102391.16;5068868;28;20044;-66
2021/12/14 02:30:57;;;;;;;17.58;7.07;;;;;;;8.03;80.50;102374.31;5068473;28;20036;-66
2021/12/14 02:33:31;;;;;;;18.60;6.30;;;;;;;7.92;81.21;102365.38;5069134;28;20123;-66
2021/12/14 02:36:04;;;;;;;15.57;7.07;;;;;;;8.04;80.67;102367.22;5067261;28;20390;-66
2021/12/14 02:38:31;;;;;;;18.73;7.15;;;;;;;7.98;80.91;102351.75;5069009;28;20064;-67
2021/12/14 02:41:05;;;;;;;23.88;7.47;;;;;;;7.85;81.01;102328.75;5086899;28;20063;-66
2021/12/14 02:43:46;;;;;;;17.38;6.90;;;;;;;7.88;81.25;102319.81;5057669;28;20044;-66
2021/12/14 02:46:19;;;;;;;16.92;7.03;;;;;;;7.90;81.42;102338.22;5087519;28;20146;-66
2021/12/14 02:48:51;;;;;;;21.55;8.02;;;;;;;7.75;81.84;102342.63;5071564;28;20471;-66
2021/12/14 02:51:38;;;;;;;18.00;8.30;;;;;;;7.53;83.70;102336.09;5089936;28;20047;-66
2021/12/14 02:54:11;;;;;;;16.70;7.63;;;;;;;7.60;82.60;102344.44;5058223;28;20045;-66
2021/12/14 02:56:40;;;;;;;19.85;8.27;;;;;;;7.69;82.55;102346.53;5054176;28;20036;-66
2021/12/14 02:59:13;;;;;;;16.58;7.75;;;;;;;7.79;82.05;102341.53;5055185;28;20416;-66
2021/12/14 03:01:43;;;;;;;20.15;8.32;;;;;;;7.73;82.67;102342.75;5055182;28;20045;-66
2021/12/14 03:04:13;;;;;;;21.98;8.77;;;;;;;7.61;82.54;102347.00;5054026;28;20520;-66
2021/12/14 03:06:46;;;;;;;20.33;7.88;;;;;;;7.66;82.94;102349.38;5053407;28;20055;-67
2021/12/14 03:09:34;;;;;;;20.25;8.63;;;;;;;7.56;83.56;102349.06;5053598;28;20520;-66
2021/12/14 03:12:06;;;;;;;28.02;8.13;;;;;;;7.62;83.28;102329.34;5054974;28;20041;-66
2021/12/14 03:14:32;;;;;;;23.40;9.32;;;;;;;7.67;83.62;102329.91;5054966;28;20505;-66
2021/12/14 03:17:00;;;;;;;21.60;7.97;;;;;;;7.92;81.77;102318.66;5053942;28;20049;-66
2021/12/14 03:19:27;;;;;;;20.95;8.82;;;;;;;7.90;81.60;102306.50;5068445;28;20068;-66
2021/12/14 03:21:54;;;;;;;22.27;8.88;;;;;;;7.65;82.54;102308.03;5073236;28;20103;-66
2021/12/14 03:24:21;;;;;;;25.23;9.02;;;;;;;7.67;82.70;102303.50;5074819;28;20404;-65
2021/12/14 03:26:53;;;;;;;20.90;9.13;;;;;;;7.55;82.90;102314.84;5074608;28;20048;-65
2021/12/14 03:29:23;;;;;;;20.30;9.23;;;;;;;7.66;82.64;102323.78;5074797;28;20072;-65
2021/12/14 03:31:54;;;;;;;18.45;9.20;;;;;;;7.62;82.91;102321.44;5074483;28;20036;-65
2021/12/14 03:34:32;;;;;;;22.98;9.55;;;;;;;7.65;82.50;102310.69;5072493;28;20098;-65
2021/12/14 03:37:05;;;;;;;23.77;10.00;;;;;;;7.59;82.97;102298.72;5074611;28;20053;-65
2021/12/14 03:39:39;;;;;;;23.45;9.88;;;;;;;7.71;82.85;102312.94;5074328;28;20045;-65
2021/12/14 03:42:15;;;;;;;23.73;10.05;;;;;;;7.57;82.73;102312.97;5074165;28;20520;-66
2021/12/14 03:44:47;;;;;;;22.55;9.60;;;;;;;7.53;83.19;102303.53;5072803;28;20051;-66
2021/12/14 03:47:25;;;;;;;26.60;9.93;;;;;;;7.74;82.09;102314.53;5057508;28;20509;-66
2021/12/14 03:49:55;;;;;;;25.10;10.98;;;;;;;7.56;83.37;102322.66;5074359;28;20117;-66
2021/12/14 03:52:28;;;;;;;22.45;10.27;;;;;;;7.61;83.53;102323.22;5073152;28;20439;-66
2021/12/14 03:55:00;;;;;;;24.65;11.75;;;;;;;7.57;83.54;102331.47;5072855;28;20040;-66
2021/12/14 03:57:27;;;;;;;24.92;11.05;;;;;;;7.47;83.97;102332.00;5072715;28;20048;-66
2021/12/14 03:59:56;;;;;;;29.35;12.05;;;;;;;7.54;83.03;102337.75;5074332;28;20052;-65
2021/12/14 04:02:24;;;;;;;31.10;12.35;;;;;;;7.50;83.70;102344.19;5073902;28;20040;-66
2021/12/14 04:05:04;;;;;;;28.65;12.27;;;;;;;7.61;83.56;102343.53;5063581;28;20049;-65
2021/12/14 04:07:35;;;;;;;28.13;11.70;;;;;;;7.46;83.93;102340.03;5071790;28;20050;-66
2021/12/14 04:10:18;;;;;;;29.30;11.85;;;;;;;7.58;83.53;102344.53;5073771;28;20112;-66
2021/12/14 04:12:47;;;;;;;28.83;12.68;;;;;;;7.50;83.85;102347.66;5073565;28;20040;-66
2021/12/14 04:15:14;;;;;;;28.02;12.75;;;;;;;7.57;83.71;102334.94;5073880;28;20044;-66
2021/12/14 04:17:41;;;;;;;33.40;13.30;;;;;;;7.31;85.32;102333.88;5073774;28;20068;-66
2021/12/14 04:20:13;;;;;;;33.38;13.25;;;;;;;7.36;85.36;102346.81;5073383;28;20075;-66
2021/12/14 04:22:42;;;;;;;31.00;12.98;;;;;;;7.36;85.01;102347.66;5073511;28;20063;-66
2021/12/14 04:25:10;;;;;;;32.00;13.82;;;;;;;7.51;84.97;102340.59;5070674;28;20051;-66
2021/12/14 04:27:38;;;;;;;31.23;13.82;;;;;;;7.62;85.22;102332.88;5064419;28;20043;-65
2021/12/14 04:30:13;;;;;;;33.67;14.05;;;;;;;7.45;86.24;102327.78;5072798;28;20048;-65
2021/12/14 04:32:40;;;;;;;33.20;13.60;;;;;;;7.34;86.52;102343.44;5071499;28;20045;-66
2021/12/14 04:35:08;;;;;;;35.20;12.85;;;;;;;7.23;86.83;102336.16;5104308;28;20076;-67
2021/12/14 04:37:39;;;;;;;30.95;13.93;;;;;;;7.24;86.31;102341.34;5073151;28;20111;-66
2021/12/14 04:40:21;;;;;;;32.83;14.35;;;;;;;7.41;86.65;102342.97;5071481;28;20446;-66
2021/12/14 04:54:02;;;;;;;38.67;14.57;;;;;;;7.14;87.73;102356.03;5072444;28;20044;-66
2021/12/14 04:56:33;;;;;;;36.67;15.68;;;;;;;7.15;87.85;102360.38;5073250;28;20505;-66
2021/12/14 04:59:08;;;;;;;34.75;15.20;;;;;;;7.29;87.97;102359.53;5072924;28;20071;-66
2021/12/14 05:01:38;;;;;;;39.88;15.65;;;;;;;7.24;87.99;102351.91;5108320;28;20045;-66
2021/12/14 05:04:10;;;;;;;37.28;14.95;;;;;;;7.30;87.71;102359.44;5072914;28;20049;-66
2021/12/14 05:07:02;;;;;;;37.08;15.77;;;;;;;7.15;88.48;102354.25;5071327;28;20052;-66
2021/12/14 05:09:32;;;;;;;36.10;15.88;;;;;;;7.24;88.39;102373.03;5072421;28;20046;-66
2021/12/14 05:12:16;;;;;;;41.75;15.85;;;;;;;7.16;88.93;102356.78;5071813;28;20041;-66
2021/12/14 05:14:51;;;;;;;34.90;14.63;;;;;;;7.15;89.56;102355.09;5104291;28;20056;-66
2021/12/14 05:17:23;;;;;;;42.05;15.85;;;;;;;7.06;89.79;102355.66;5071812;28;20448;-66
2021/12/14 05:19:52;;;;;;;38.08;15.88;;;;;;;6.96;89.98;102349.22;5071449;28;20127;-66
2021/12/14 05:22:25;;;;;;;40.47;15.93;;;;;;;6.95;90.52;102360.72;5071338;28;20045;-67
2021/12/14 05:24:57;;;;;;;40.72;16.55;;;;;;;7.19;89.46;102351.34;5071133;28;20046;-67
2021/12/14 05:27:31;;;;;;;39.10;15.35;;;;;;;7.13;89.83;102354.34;5072639;28;20119;-67
2021/12/14 05:30:22;;;;;;;35.70;15.52;;;;;;;7.35;88.88;102358.31;5071352;28;20048;-67
2021/12/14 05:33:00;;;;;;;40.55;16.02;;;;;;;7.24;89.51;102364.25;5072201;28;20037;-67
2021/12/14 05:35:28;;;;;;;36.42;15.18;;;;;;;7.19;89.98;102361.91;5071445;28;20052;-67
2021/12/14 05:37:57;;;;;;;38.33;16.23;;;;;;;7.19;90.36;102361.06;5069130;28;20040;-67
2021/12/14 05:43:15;;;;;;;37.40;15.30;;;;;;;7.19;90.53;102339.94;5130990;27;20410;-66
2021/12/14 05:46:06;;;;;;;36.03;15.68;;;;;;;7.26;89.59;102338.63;5121827;28;20044;-66
2021/12/14 05:48:43;;;;;;;37.90;16.13;;;;;;;7.24;90.37;102337.84;5120499;28;20407;-66
2021/12/14 05:51:10;;;;;;;39.50;16.80;;;;;;;7.16;89.60;102334.84;5130894;27;20089;-66
2021/12/14 05:53:43;;;;;;;40.50;17.27;;;;;;;7.10;90.19;102342.19;5112491;28;20067;-66
2021/12/14 05:56:15;;;;;;;41.00;16.73;;;;;;;7.02;90.36;102338.28;5129220;28;20073;-66
2021/12/14 05:58:42;;;;;;;42.33;16.58;;;;;;;7.01;90.99;102333.97;5130723;27;20035;-64
2021/12/14 06:01:14;;;;;;;40.40;16.50;;;;;;;7.05;90.92;102335.47;5128934;28;20062;-65
2021/12/14 06:03:49;;;;;;;35.42;15.75;;;;;;;7.23;90.64;102336.16;5130450;27;20047;-65
2021/12/14 06:06:21;;;;;;;34.45;15.55;;;;;;;7.41;89.67;102328.91;5113405;28;20338;-66
2021/12/14 06:08:49;;;;;;;38.17;15.95;;;;;;;7.31;89.46;102328.59;5112585;28;20035;-65
2021/12/14 06:11:26;;;;;;;40.42;15.77;;;;;;;7.18;90.02;102335.59;5130463;27;20039;-65
2021/12/14 06:13:55;;;;;;;38.03;15.80;;;;;;;7.19;90.67;102332.84;5112548;28;20067;-65
2021/12/14 06:16:34;;;;;;;38.97;16.30;;;;;;;7.18;90.57;102343.50;5095518;28;20119;-66
2021/12/14 06:22:00;;;;;;;36.88;15.75;;;;;;;7.19;90.08;102337.31;5110673;27;20121;-67
2021/12/14 06:24:28;;;;;;;34.50;15.00;;;;;;;7.26;89.22;102339.47;5110250;28;20568;-66
2021/12/14 06:26:59;;;;;;;37.75;15.82;;;;;;;7.07;89.72;102347.63;5088131;28;20071;-66
2021/12/14 06:29:30;;;;;;;31.88;15.25;;;;;;;7.33;89.20;102357.56;5090884;28;20043;-66
2021/12/14 06:32:06;;;;;;;31.90;14.32;;;;;;;7.22;89.25;102359.09;5091421;28;20071;-66
2021/12/14 06:34:33;;;;;;;35.15;15.23;;;;;;;7.20;89.08;102365.38;5108022;28;20040;-66
2021/12/14 06:37:27;;;;;;;33.15;14.10;;;;;;;7.29;89.36;102359.53;5097540;28;20040;-66
2021/12/14 06:40:18;;;;;;;33.25;14.10;;;;;;;7.28;89.28;102345.50;5107192;28;20047;-66
2021/12/14 06:42:51;;;;;;;32.45;14.10;;;;;;;7.12;89.64;102355.28;5093418;28;20059;-66
2021/12/14 06:45:21;;;;;;;29.52;13.55;;;;;;;7.12;89.55;102357.94;5074679;28;20116;-66
2021/12/14 06:47:52;;;;;;;27.52;13.55;;;;;;;7.05;90.22;102356.59;5074696;28;20040;-66
2021/12/14 06:50:23;;;;;;;29.60;13.80;;;;;;;7.03;89.88;102361.13;5109169;28;20447;-66
2021/12/14 06:53:02;;;;;;;32.38;14.00;;;;;;;7.17;89.29;102355.88;5076195;28;20135;-66
2021/12/14 06:55:52;;;;;;;36.45;15.05;;;;;;;7.22;88.79;102369.63;5075203;28;20040;-66
2021/12/14 06:58:54;;;;;;;32.22;14.50;;;;;;;7.25;89.35;102366.78;5088792;28;20036;-66
2021/12/14 07:01:41;;;;;;;33.22;14.48;;;;;;;7.32;89.04;102371.72;5088670;28;20051;-66
2021/12/14 07:04:12;;;;;;;31.70;13.90;;;;;;;7.32;88.74;102382.28;5088995;28;20044;-66
2021/12/14 07:06:44;;;;;;;33.05;14.10;;;;;;;7.39;88.36;102381.81;5069479;28;20463;-66
2021/12/14 07:09:23;;;;;;;33.95;14.35;;;;;;;7.38;88.20;102381.91;5089094;28;20052;-66
2021/12/14 07:12:01;;;;;;;35.00;13.90;;;;;;;7.26;88.64;102394.06;5089115;28;20045;-66
2021/12/14 07:17:27;;;;;;;31.63;13.68;;;;;;;7.34;88.69;102410.28;5130808;27;20383;-67
2021/12/14 07:19:59;;;;;;;37.65;14.35;;;;;;;7.20;88.96;102403.16;5131995;27;20047;-66
2021/12/14 07:27:51;;;;;;;31.67;14.73;;;;;;;7.24;89.52;102383.59;5123700;27;20387;-66
2021/12/14 07:33:19;;;;;;;36.85;16.58;;;;;;;7.28;88.95;102402.72;5130104;27;20382;-67
2021/12/14 07:41:26;;;;;;;32.65;15.15;;;;;;;7.23;88.77;102424.13;5097999;28;20121;-67
2021/12/14 07:49:25;;;;;;;34.45;15.10;;;;;;;7.25;88.33;102434.59;5063315;27;20427;-67
2021/12/14 07:52:02;;;;;;;35.30;15.45;;;;;;;7.21;88.54;102446.28;5039701;28;20037;-67
2021/12/14 07:54:34;;;;;;;34.10;14.73;;;;;;;7.29;88.63;102452.81;5047079;28;20494;-67
2021/12/14 07:57:06;;;;;;;34.03;15.13;;;;;;;7.47;87.29;102444.72;5030117;28;20085;-65
2021/12/14 07:59:35;;;;;;;;;;;;;;;7.42;87.46;102445.00;5039927;28;20056;-65
2021/12/14 08:02:24;;;;;;;30.38;13.88;;;;;;;7.46;88.20;102448.31;5047777;28;19932;-66
2021/12/14 08:04:55;;;;;;;31.55;13.18;;;;;;;7.41;87.64;102469.69;5042225;28;20041;-66
2021/12/14 08:07:35;;;;;;;31.38;14.25;;;;;;;7.32;87.29;102470.25;5044886;28;20045;-69
2021/12/14 08:10:21;;;;;;;34.33;14.77;;;;;;;7.29;88.24;102476.56;5045427;28;20116;-62
2021/12/14 08:12:52;;;;;;;32.90;13.55;;;;;;;7.27;87.93;102467.84;5081603;28;20041;-62
2021/12/14 08:15:35;;;;;;;30.08;14.45;;;;;;;7.24;87.69;102480.38;5049322;28;20076;-62
2021/12/14 08:18:10;;;;;;;33.53;14.43;;;;;;;7.20;87.98;102469.16;5049532;28;20465;-62
2021/12/14 08:20:44;;;;;;;31.75;13.80;;;;;;;7.21;88.01;102464.75;5049180;28;20379;-63
2021/12/14 08:23:20;;;;;;;33.40;14.70;;;;;;;7.24;87.84;102465.41;5078556;28;20047;-63
2021/12/14 08:25:49;;;;;;;29.92;14.60;;;;;;;7.38;87.04;102469.03;5048042;28;20528;-65
2021/12/14 08:28:21;;;;;;;33.30;15.13;;;;;;;7.17;88.71;102484.31;5027160;28;20040;-65
2021/12/14 08:31:05;;;;;;;33.88;15.32;;;;;;;7.35;87.30;102491.19;5048018;28;20433;-65
2021/12/14 08:33:32;;;;;;;34.60;14.93;;;;;;;7.56;86.53;102490.84;5036798;28;20081;-65
2021/12/14 08:36:03;;;;;;;32.17;15.20;;;;;;;7.59;86.45;102503.88;5043513;28;20369;-65
2021/12/14 08:38:33;;;;;;;33.38;13.70;;;;;;;7.49;86.96;102485.94;5035796;28;20398;-65
2021/12/14 08:41:13;;;;;;;32.25;14.68;;;;;;;7.52;86.78;102487.53;5044682;28;20132;-64
2021/12/14 08:43:52;;;;;;;30.43;14.97;;;;;;;7.22;87.81;102488.41;5022244;28;20506;-66
2021/12/14 08:46:26;;;;;;;32.20;14.85;;;;;;;7.33;87.59;102490.44;5043876;28;20092;-66
2021/12/14 08:48:57;;;;;;;35.35;16.30;;;;;;;7.37;87.08;102491.06;5061302;28;20148;-66
2021/12/14 08:51:30;;;;;;;32.87;14.63;;;;;;;7.43;86.74;102482.81;5037879;28;20125;-67
2021/12/14 08:57:10;;;;;;;33.42;14.82;;;;;;;7.41;87.44;102477.63;5088825;27;20121;-66
2021/12/14 08:59:40;;;;;;;33.90;14.77;;;;;;;7.57;86.57;102469.63;5054046;28;20056;-66
2021/12/14 09:02:11;;;;;;;29.52;14.50;;;;;;;7.54;86.18;102474.25;5083463;28;20037;-67
2021/12/14 09:04:44;;;;;;;28.55;13.40;;;;;;;7.43;86.07;102469.59;5065349;28;20053;-67
2021/12/14 09:07:16;;;;;;;32.83;14.07;;;;;;;7.44;86.87;102469.53;5064952;28;20037;-67
2021/12/14 09:09:44;;;;;;;30.80;14.13;;;;;;;7.54;86.92;102466.31;5052059;28;20055;-67
2021/12/14 09:12:17;;;;;;;40.28;15.88;;;;;;;7.50;86.71;102465.66;5044578;28;20041;-67
2021/12/14 09:14:48;;;;;;;31.30;14.43;;;;;;;7.45;86.48;102470.38;5059972;28;20430;-66
2021/12/14 09:17:19;;;;;;;31.95;13.55;;;;;;;7.63;85.81;102460.50;5057874;28;20489;-66
2021/12/14 09:19:49;;;;;;;34.70;16.57;;;;;;;7.56;86.40;102467.09;5065235;28;20044;-67
2021/12/14 09:22:23;;;;;;;30.95;14.55;;;;;;;7.79;84.33;102471.81;5062557;28;20047;-66
2021/12/14 09:24:50;;;;;;;36.30;14.88;;;;;;;7.48;86.42;102478.94;5082496;28;22055;-65
2021/12/14 09:27:21;;;;;;;30.55;13.93;;;;;;;7.41;86.06;102488.19;5082124;28;20044;-65
2021/12/14 09:29:50;;;;;;;31.30;14.18;;;;;;;7.71;84.99;102476.72;5041571;28;20076;-65
2021/12/14 09:32:24;;;;;;;34.38;14.13;;;;;;;7.54;85.91;102490.09;5074196;28;20033;-65
2021/12/14 09:34:51;;;;;;;33.55;15.10;;;;;;;7.38;87.39;102484.88;5062564;28;20542;-65
2021/12/14 09:37:19;;;;;;;27.92;13.32;;;;;;;7.52;86.07;102502.53;5080796;28;20044;-65
2021/12/14 09:39:53;;;;;;;35.08;13.98;;;;;;;7.69;85.36;102491.81;5079728;28;20442;-65
2021/12/14 09:42:25;;;;;;;34.90;13.70;;;;;;;7.49;86.21;102493.00;5078426;28;20040;-65
2021/12/14 09:44:54;;;;;;;32.10;13.70;;;;;;;7.57;86.18;102496.03;5061667;28;20035;-65
2021/12/14 09:47:26;;;;;;;34.53;14.93;;;;;;;7.69;86.10;102494.44;5076681;28;20098;-64
2021/12/14 09:49:53;;;;;;;28.98;13.40;;;;;;;7.69;85.33;102495.31;5083654;28;20048;-65
2021/12/14 09:52:29;;;;;;;31.05;13.52;;;;;;;7.58;85.74;102500.38;5060302;28;20114;-65
2021/12/14 09:54:58;;;;;;;31.48;14.52;;;;;;;7.63;86.09;102490.38;5078515;28;20044;-65
2021/12/14 10:00:07;;;;;;;31.73;13.52;;;;;;;7.74;84.60;102483.63;5123661;27;20055;-64
2021/12/14 10:02:42;;;;;;;31.20;13.32;;;;;;;7.56;86.00;102496.97;5122489;28;20043;-64
2021/12/14 10:05:20;;;;;;;36.17;13.07;;;;;;;7.54;85.41;102484.81;5127764;27;20059;-64
2021/12/14 10:07:49;;;;;;;31.60;14.32;;;;;;;7.54;86.32;102482.19;5120856;27;20448;-65
2021/12/14 10:10:18;;;;;;;30.10;13.68;;;;;;;7.68;86.20;102479.56;5125463;27;20100;-64
2021/12/14 10:12:50;;;;;;;32.83;14.63;;;;;;;7.67;85.25;102485.75;5107965;28;20039;-65
2021/12/14 10:15:42;;;;;;;37.70;14.68;;;;;;;7.81;85.33;102492.88;5125058;28;20066;-65
2021/12/14 10:18:15;;;;;;;30.25;14.07;;;;;;;7.88;84.12;102495.03;5123058;28;20697;-64
2021/12/14 10:20:49;;;;;;;30.80;13.25;;;;;;;7.85;83.65;102499.66;5125069;28;20035;-64
2021/12/14 10:23:17;;;;;;;29.27;13.18;;;;;;;7.75;84.57;102509.94;5122299;27;20040;-65
2021/12/14 10:25:45;;;;;;;31.48;13.77;;;;;;;7.81;83.91;102499.00;5123789;27;20054;-64
2021/12/14 10:28:13;;;;;;;29.85;14.20;;;;;;;7.77;85.30;102499.28;5108300;28;20040;-65
2021/12/14 10:30:47;;;;;;;29.35;13.85;;;;;;;7.75;84.56;102502.03;5125088;28;20047;-64
2021/12/14 10:33:14;;;;;;;31.40;13.65;;;;;;;7.56;85.59;102498.78;5120679;27;20055;-66
2021/12/14 10:35:48;;;;;;;33.45;14.13;;;;;;;7.72;84.16;102502.19;5109749;28;20043;-64
2021/12/14 10:38:26;;;;;;;29.33;14.45;;;;;;;7.63;84.64;102493.03;5117303;27;20031;-65
2021/12/14 10:43:47;;;;;;;29.92;13.90;;;;;;;7.71;85.18;102489.91;5121214;28;20126;-64
2021/12/14 10:46:21;;;;;;;30.80;13.18;;;;;;;7.76;84.78;102497.56;5120787;28;20093;-65
2021/12/14 10:48:49;;;;;;;26.05;13.18;;;;;;;7.82;84.23;102500.72;5122868;28;20446;-64
2021/12/14 10:51:20;;;;;;;30.70;13.93;;;;;;;7.82;84.49;102497.19;5119787;28;20617;-65
2021/12/14 10:53:49;;;;;;;34.00;14.23;;;;;;;7.80;84.76;102485.88;5122633;28;20044;-65
2021/12/14 10:56:41;;;;;;;34.83;13.27;;;;;;;7.88;84.94;102494.19;5120369;28;20043;-64
2021/12/14 10:59:12;;;;;;;30.92;13.75;;;;;;;8.07;83.28;102486.81;5122206;28;20054;-65
2021/12/14 11:01:39;;;;;;;30.90;13.75;;;;;;;7.98;83.23;102490.03;5120884;28;20066;-65
2021/12/14 11:04:10;;;;;;;31.25;14.32;;;;;;;8.06;83.66;102487.78;5120719;28;20066;-64
2021/12/14 11:06:42;;;;;;;26.35;13.85;;;;;;;8.04;83.01;102494.09;5116792;28;20048;-64
2021/12/14 11:11:56;;;;;;;28.38;13.50;;;;;;;7.95;83.72;102477.03;5105909;28;20046;-64
2021/12/14 11:14:28;;;;;;;32.95;14.25;;;;;;;7.94;84.36;102479.75;5106714;28;20126;-64
2021/12/14 11:19:52;;;;;;;31.10;14.48;;;;;;;8.17;83.04;102467.75;5104222;28;20130;-64
2021/12/14 11:25:25;;;;;;;36.90;15.13;;;;;;;7.98;84.82;102471.53;5125182;27;20391;-65
2021/12/14 11:28:05;;;;;;;30.65;15.07;;;;;;;8.00;84.29;102472.28;5088315;28;20105;-65
2021/12/14 11:30:37;;;;;;;34.97;15.35;;;;;;;8.11;84.27;102471.63;5106111;28;20044;-65
2021/12/14 11:35:50;;;;;;;33.08;13.98;;;;;;;8.11;83.53;102454.91;5065800;27;20377;-65
2021/12/14 11:38:42;;;;;;;31.45;14.27;;;;;;;8.32;82.37;102461.50;5054460;28;20073;-66
2021/12/14 11:41:28;;;;;;;;;;;;;;;8.21;83.01;102470.09;5078056;28;21198;-65
2021/12/14 11:44:02;;;;;;;29.45;13.30;;;;;;;8.17;83.46;102465.97;5047773;28;19928;-65
2021/12/14 11:46:32;;;;;;;26.38;12.88;;;;;;;8.40;82.73;102464.53;5082221;28;20055;-65
2021/12/14 11:49:04;;;;;;;31.15;13.52;;;;;;;8.51;81.68;102463.84;5049795;28;20144;-65
2021/12/14 11:51:31;;;;;;;30.92;14.02;;;;;;;8.59;81.46;102464.22;5054288;28;20052;-65
2021/12/14 11:54:00;;;;;;;32.20;14.00;;;;;;;8.44;82.03;102454.59;5077192;28;20048;-65
2021/12/14 11:56:30;;;;;;;32.20;13.88;;;;;;;8.15;83.26;102454.63;5038036;28;20045;-65
2021/12/14 11:59:04;;;;;;;31.52;13.23;;;;;;;8.13;84.00;102461.81;5035821;28;20124;-65
2021/12/14 12:01:53;;;;;;;35.28;12.98;;;;;;;8.20;83.16;102456.97;5047036;28;20048;-65
2021/12/14 12:04:34;;;;;;;30.25;13.43;;;;;;;8.26;82.83;102454.81;5062183;28;20120;-65
2021/12/14 12:09:47;;;;;;;29.80;13.95;;;;;;;8.38;82.28;102455.81;5044064;28;20037;-65
2021/12/14 12:12:25;;;;;;;29.63;14.23;;;;;;;8.40;81.65;102455.72;5042868;28;20124;-65
2021/12/14 12:14:56;;;;;;;28.98;13.85;;;;;;;8.38;82.31;102449.69;5043254;28;20041;-65
2021/12/14 12:20:30;;;;;;;31.25;14.43;;;;;;;8.29;83.09;102450.25;5103440;27;20805;-65
2021/12/14 12:23:03;;;;;;;30.52;14.85;;;;;;;8.32;82.34;102443.00;5101015;28;20071;-67
2021/12/14 12:28:23;;;;;;;31.70;15.25;;;;;;;8.53;81.59;102453.16;5139193;27;20366;-67
2021/12/14 12:33:34;;;;;;;32.90;15.07;;;;;;;8.31;83.21;102453.66;5058852;27;20430;-66
2021/12/14 12:36:37;;;;;;;37.97;15.93;;;;;;;8.39;82.52;102457.53;5061379;28;20037;-67
2021/12/14 12:39:11;;;;;;;30.02;14.25;;;;;;;8.22;83.63;102455.09;5057342;28;20120;-67
2021/12/14 12:41:47;;;;;;;31.63;15.25;;;;;;;8.35;83.40;102450.75;5062683;28;20029;-65
2021/12/14 12:44:21;;;;;;;33.67;14.35;;;;;;;8.45;83.12;102443.91;5055728;28;20045;-67
2021/12/14 12:47:09;;;;;;;28.77;13.38;;;;;;;8.72;82.15;102450.19;5062974;28;20133;-66
2021/12/14 12:49:55;;;;;;;33.15;14.77;;;;;;;8.69;81.63;102448.56;5057363;28;20047;-66
2021/12/14 12:52:27;;;;;;;33.22;14.63;;;;;;;8.81;81.16;102439.00;5057345;28;20124;-66
2021/12/14 12:55:12;;;;;;;;;;;;;;;8.76;81.35;102447.22;5063068;28;20067;-65
2021/12/14 12:57:45;;;;;;;30.63;14.73;;;;;;;8.93;80.92;102438.19;5052740;28;19921;-66
2021/12/14 13:00:37;;;;;;;32.40;15.18;;;;;;;8.81;81.13;102439.84;5058508;28;20049;-65
2021/12/14 13:03:16;;;;;;;41.28;15.77;;;;;;;8.91;79.82;102426.00;5053854;28;20107;-68
2021/12/14 13:05:54;;;;;;;29.10;15.32;;;;;;;8.73;81.17;102430.69;5050376;28;20048;-65
2021/12/14 13:11:21;;;;;;;33.55;17.13;;;;;;;8.92;80.56;102431.19;5082217;27;20413;-64
2021/12/14 13:13:53;;;;;;;41.35;19.98;;;;;;;8.98;80.59;102440.53;5060544;28;20087;-64
2021/12/14 13:16:42;;;;;;;33.00;16.52;;;;;;;8.88;80.81;102437.66;5051840;28;20520;-66
2021/12/14 13:19:14;;;;;;;33.65;16.33;;;;;;;8.81;81.62;102431.06;5054190;28;20036;-65